AirNav   Advertisement
 
 842 users online  

0GE0 Pinewood Airport
Douglasville, Georgia, USA

GOING TO DOUGLASVILLE?


FAA INFORMATION EFFECTIVE 14 SEPTEMBER 2017

Location

FAA Identifier: 0GE0
Lat/Long: 33-46-55.3840N / 084-48-02.7750W
33-46.923067N / 084-48.046250W
33.7820511 / -84.8007708
(estimated)
Elevation: 1085 ft. / 330.7 m (surveyed)
Variation: 02W (1985)
From city: 3 miles NW of DOUGLASVILLE, GA
Time zone: UTC -4 (UTC -5 during Standard Time)
Zip code: 30134

Airport Operations

Airport use: Private use. Permission required prior to landing
Activation date: 08/1972
Control tower: no
ARTCC: ATLANTA CENTER
FSS: MACON FLIGHT SERVICE STATION
Attendance: CONTINUOUS
Wind indicator: yes
Segmented circle: no

Airport Communications

WX AWOS-3 at PUJ (10 nm NW): 126.225 (770-445-3870)
WX ASOS at FTY (14 nm E): PHONE 404-696-5660
WX AWOS-3PT at RYY (17 nm NE): PHONE 770-425-3406
WX AWOS-3 at CTJ (20 nm SW): 118.175 (770-214-9667)

Nearby radio navigation aids

VOR radial/distance  VOR name  Freq  Var
ATLr302/20.4ATLANTA VORTAC116.9005W
PDKr262/25.6PEACHTREE VOR/DME116.6005W
RMGr144/27.8ROME VORTAC115.4001E

 
NDB name  Hdg/Dist  Freq  Var  ID
FLANC283/8.234405WFT ..-. -
CARROLLTON056/21.027804WGPQ --. .--. --.-
CARTERSVILLE179/25.130804WEVZ . ...- --..
COWETA COUNTY355/31.823403WEQQ . --.- --.-
CHERO214/32.241505WDJD -.. .--- -..
PECAT336/32.931605WFFC ..-. ..-. -.-.
CALHOUN175/37.732305WOUK --- ..- -.-

Airport Services

Parking: hangars
Airframe service: NONE
Powerplant service: NONE
Bottled oxygen: NONE
Bulk oxygen: NONE

Runway Information

Runway 2/20

Dimensions: 2000 x 30 ft. / 610 x 9 m
Surface: turf
RUNWAY 2  RUNWAY 20
Traffic pattern: leftleft
Runway end identifier lights: nono
Obstructions: tree
+30' TREE 40' RIGHT OF CENTERLINE.
trees
+50' TREES 35' FROM BOTH SIDES OF RWY AT THR.

Airport Ownership and Management from official FAA records

Ownership: Privately-owned
Owner: MARK BAGWELL & BOB MEADOWS
544 JACK MEADOWS ROAD
DOUGLASVILLE, GA 30134
Phone 770-949-9635
Manager: BOB MEADOWS
544 JACK MEADOWS ROAD
DOUGLASVILLE, GA 30134
Phone 770-949-9635

Airport Operational Statistics

Aircraft based on the field: 6
Single engine airplanes: 6
    
Aircraft operations: avg 50/month *
83% local general aviation
17% transient general aviation
* for 12-month period ending 19 September 1978

Additional Remarks

EXCESSIVE GRADE CHANGES BETWEEN RWY ENDS AND CENTER OF RWY.

Instrument Procedures

There are no published instrument procedures at 0GE0.

Some nearby airports with instrument procedures:

KPUJ - Paulding Northwest Atlanta Airport (10 nm NW)
KFTY - Fulton County Airport-Brown Field (14 nm E)
KMGE - Dobbins Air Reserve Base (16 nm NE)
KRYY - Cobb County International Airport-McCollum Field (17 nm NE)
KCTJ - West Georgia Regional Airport-O V Gray Field (20 nm SW)
 
Loc | Ops | Rwys | IFR | FBO | Links
Com | Nav | Svcs | Stats | Notes


 
Area around 0GE0 (Pinewood Airport)
 
Road maps at: MapQuest Bing Google
 
Aerial photo
WARNING: Photo may not be current or correct
Aerial photo of 0GE0 (Pinewood Airport)
Photo by Bob Meadows
Photo taken 14-Apr-2010
looking Northeast.

Do you have a better or more recent aerial photo of Pinewood Airport that you would like to share? If so, please send us your photo.

 
Sectional chart

 
Airport distance calculator
Flying to Pinewood Airport? Find the distance to fly.

From to 0GE0

Sunrise and sunset
Times for 20-Sep-2017
 Local
(UTC-4)
 Zulu
(UTC)
Morning civil twilight07:0211:02
Sunrise07:2711:27
Sunset19:3823:38
Evening civil twilight20:0300:03

Current date and time
Zulu (UTC)  21-Sep-2017 02:42:39
Local (UTC-4)  20-Sep-2017 22:42:39
 
METAR
KPUJ 
10nm NW 
210215Z AUTO 32004KT 10SM CLR 26/22 A3006 RMK AO2
KFTY 
14nm E 
210153Z 00000KT 10SM CLR 22/21 A3003 RMK AO2 SLP162 T02220211
KMGE 
16nm NE 
210156Z 28004KT 10SM FEW250 24/20 A3005 RMK AO2A SLP167 T02390196 $
KRYY 
17nm NE 
210151Z 00000KT 10SM CLR 24/21 A3006
KATL 
20nm SE 
210152Z 34006KT 10SM SCT250 26/19 A3004 RMK AO2 SLP162 T02560194
KCTJ 
20nm SW 
210215Z AUTO 00000KT 10SM CLR 21/20 A3010 RMK AO2 T02080198
TAF
KFTY 
14nm E 
201742Z 2018/2118 31006KT P6SM FEW050 FEW250 FM210100 00000KT P6SM FEW250 TEMPO 2110/2112 4SM BR FM211300 01004KT P6SM FEW250 FM211700 02006KT P6SM SCT050
KMGE 
16nm NE 
202100Z 2021/2203 33006KT 9999 SCT050 SCT100 QNH2995INS BECMG 2114/2115 03006KT 9999 SKC QNH3000INS TX30/2021Z TN20/2112Z
KRYY 
17nm NE 
201742Z 2018/2118 31006KT P6SM FEW050 FEW250 FM210100 00000KT P6SM FEW250 TEMPO 2110/2112 4SM BR FM211300 01004KT P6SM FEW250 FM211700 02006KT P6SM SCT050
KATL 
20nm SE 
210134Z 2102/2206 32005KT P6SM FEW250 FM211300 01004KT P6SM FEW250 FM211900 02006KT P6SM VCSH SCT050 FM220000 05005KT P6SM SCT250
NOTAMs
Click for the latest NOTAMs
NOTAMs are issued by the DoD/FAA and will open in a separate window not controlled by AirNav.

 

 
 

Would you like to see your business listed on this page?

 If your business provides an interesting product or service to pilots, flight crews, aircraft, or users of the Pinewood Airport, you should consider listing it here.  To start the listing process, click on the button below
 
Add a business
 

Other Pages about Pinewood Airport

Update a link
 
Copyright © AirNav, LLC. All rights reserved. Privacy Policy  Contact